MET'MAP v2.0
soon released !

Expected late october,
this new version will be
more efficient, smarter,
and hosted on a brand new
server x3 powerfull...
...and still free !


Not compatible ?
Try the mobile version !

LOG IN : | Subscribe | Disclaimer | Who is Orbifly ? |
ICAO code :

TAF - LYTV Tivat - Montenegro - 27 Feb 2020 03:01 UTC - Data Source NOAA   


- Airport Elevation : 20 ft
- IATA code : TIV
- No reported NOTAMs.


LYTV - Tivat - Montenegro

Latest METAR recorded : 2015/08/11 08:00 LYTV 110800Z VRB01KT 9999 FEW060 30/16 Q1012 NOSIG
TAF TAF LYTV
Valid from the 27 at 00:00 until the 28 at 00:00 UTC


262300Z 2700/2724 20009KT 9999 FEW030 SCT040 OVC080 TX14/2700Z TN04/2705Z
TEMPO 2700/2707 4000 RA
PROB40
TEMPO 2700/2704 21015G25KT 2000 TSRA FEW010 FEW023CB BKN030
BECMG 2704/20706 35010KT
TEMPO 2706/2711 01015G25K

Source NOAA


MET'MAP, your aeronautical weather chart ! - Copyright ORBIFLY December 2007

Programming & Development : Alexandra Zaïnal
Co-Developer : Marc-Olivier Méhu
Technical & hardware support : Manuel Goepfert
Concept & Financing : Baudouin d'Aumeries